Flight Track Log - Related Links

Times and Time Zones

All times are in EDT time to prevent confusion due to time zone crossing. See the SWA385 flight status page for this flight to view local times or setup timezone preferences in your user account.

Time Position Orientation Groundspeed Altitude Reporting Facility
EDT Latitude Longitude Course Direction KTS MPH feet Rate Location/Type
Mon 07:30:15 PM 41.7556 -87.8211 239° Southwest 181 208 3,300  Level Chicago Center
Mon 07:31:17 PM 41.7411 -87.9017 257° West 214 246 6,100 3,122 Climbing Chicago Center
Mon 07:32:18 PM 41.7650 -88.0061 287° West 255 293 9,700 2,878 Climbing Chicago Center
Mon 07:33:20 PM 41.7800 -88.1056 281° West 282 325 12,000 1,403 Climbing Chicago Center
Mon 07:34:22 PM 41.7728 -88.2136 265° West 295 339 12,600 1,113 Climbing Chicago Center
Mon 07:35:24 PM 41.8203 -88.3172 302° West 339 390 14,300 2,081 Climbing Chicago Center
Mon 07:36:26 PM 41.8894 -88.4447 306° West 354 407 16,900 2,419 Climbing Chicago Center
Mon 07:37:28 PM 41.9539 -88.5597 307° West 379 436 19,300 2,129 Climbing Chicago Center
Mon 07:38:30 PM 42.0186 -88.6744 307° West 387 445 21,300 1,935 Climbing Chicago Center
Mon 07:39:32 PM 42.0425 -88.8217 282° West 409 471 23,300 1,839 Climbing Chicago Center
Mon 07:40:34 PM 42.0983 -88.9639 298° West 409 471 25,100 1,536 Climbing Chicago Center
Mon 07:41:37 PM 42.1522 -89.1050 297° West 419 482 26,500 1,344 Climbing Chicago Center
Mon 07:42:39 PM 42.1836 -89.2600 285° West 454 522 27,900 1,645 Climbing Chicago Center
Mon 07:43:41 PM 42.1753 -89.4553 267° West 446 513 29,900 1,839 Climbing Chicago Center
Mon 07:44:43 PM 42.1708 -89.6219 268° West 445 512 31,700 1,113 Climbing Chicago Center
Mon 07:45:45 PM 42.1628 -89.7847 266° West 438 504 32,200 1,403 Climbing Chicago Center
Mon 07:46:47 PM 42.1564 -89.9594 267° West 430 495 34,600 1,645 Climbing Chicago Center
Mon 07:47:49 PM 42.1500 -90.1117 267° West 413 475 35,600 677 Climbing Chicago Center
Mon 07:48:51 PM 42.1536 -90.2675 272° West 420 483 36,000 194 Climbing Chicago Center
Mon 07:49:53 PM 42.1606 -90.4228 274° West 420 483 36,000  Level Chicago Center
Mon 07:50:55 PM 42.1661 -90.5775 273° West 418 481 36,000  Level Chicago Center
Mon 07:51:57 PM 42.1719 -90.7622 273° West 416 479 36,000  Level Chicago Center
Mon 07:52:59 PM 42.1761 -90.9175 272° West 417 480 36,000 432 Level Chicago Center
Mon 07:54:02 PM 42.1689 -91.0714 266° West 419 482 36,900 864 Climbing Chicago Center
Mon 07:55:04 PM 42.1492 -91.2242 260° West 416 479 37,800 532 Climbing Chicago Center
Mon 07:56:06 PM 42.1317 -91.3775 261° West 416 479 38,000 97 Climbing Chicago Center
Mon 07:57:08 PM 42.1122 -91.5322 260° West 419 482 38,000  Level Chicago Center
Mon 07:58:10 PM 42.0911 -91.7175 261° West 420 483 38,000  Level Chicago Center
Mon 07:59:12 PM 42.0744 -91.8736 262° West 422 486 38,000  Level Chicago Center
Mon 08:00:14 PM 42.0575 -92.0294 262° West 423 487 38,000  Level Chicago Center
Mon 08:01:16 PM 42.0403 -92.1836 261° West 420 483 38,000  Level Chicago Center
Mon 08:02:18 PM 42.0253 -92.3397 263° West 421 484 38,000  Level Chicago Center
Mon 08:03:20 PM 42.0033 -92.5236 261° West 418 481 38,000  Level Chicago Center
Mon 08:04:22 PM 41.9867 -92.6778 262° West 420 483 38,000  Level Chicago Center
Mon 08:05:24 PM 41.9708 -92.8319 262° West 419 482 38,000  Level Chicago Center
Mon 08:06:26 PM 41.9725 -92.9900 271° West 422 486 38,000  Level Chicago Center
Mon 08:07:28 PM 41.9733 -93.1458 270° West 422 486 38,000  Level Chicago Center
Mon 08:08:30 PM 41.9781 -93.3347 272° West 425 489 38,000  Level Chicago Center
Mon 08:09:32 PM 41.9803 -93.4917 271° West 425 489 38,000  Level Chicago Center
Mon 08:10:34 PM 41.9819 -93.6492 271° West 424 488 38,000  Level Chicago Center
Mon 08:11:37 PM 41.9850 -93.8061 272° West 425 489 38,000  Level Chicago Center
Mon 08:12:39 PM 41.9853 -93.9639 270° West 425 489 38,000  Level Chicago Center
Mon 08:13:41 PM 41.9875 -94.1525 271° West 424 488 38,000  Level Chicago Center
Mon 08:14:43 PM 41.9883 -94.3092 270° West 422 486 38,000  Level Chicago Center
Mon 08:15:57 PM 41.9914 -94.5058 271° West 423 487 38,000  Level Minneapolis Center
Mon 08:16:58 PM 41.9922 -94.6617 270° West 421 484 38,000  Level Minneapolis Center
Mon 08:18:00 PM 41.9936 -94.8194 271° West 424 488 38,000  Level Minneapolis Center
Mon 08:19:02 PM 41.9931 -94.9747 270° West 418 481 38,000  Level Minneapolis Center
Mon 08:20:04 PM 41.9942 -95.1319 271° West 422 486 38,000  Level Minneapolis Center
Mon 08:21:05 PM 41.9933 -95.3225 270° West 426 490 38,000  Level Minneapolis Center
Mon 08:22:07 PM 41.9928 -95.4800 270° West 424 488 38,000  Level Minneapolis Center
Mon 08:23:09 PM 41.9931 -95.6392 270° West 428 493 38,000  Level Minneapolis Center
Mon 08:24:11 PM 41.9908 -95.7956 269° West 423 487 38,000  Level Minneapolis Center
Mon 08:25:12 PM 41.9903 -95.9519 270° West 421 484 38,000  Level Minneapolis Center
Mon 08:26:14 PM 41.9894 -96.1094 270° West 423 487 38,000  Level Minneapolis Center
Mon 08:27:16 PM 41.9878 -96.2947 269° West 418 481 38,000  Level Minneapolis Center
Mon 08:28:18 PM 41.9864 -96.4497 269° West 418 481 38,000  Level Minneapolis Center
Mon 08:29:19 PM 41.9833 -96.6044 269° West 417 480 38,000  Level Minneapolis Center
Mon 08:30:21 PM 41.9822 -96.7597 270° West 416 479 38,000  Level Minneapolis Center
Mon 08:31:23 PM 41.9803 -96.9136 269° West 415 478 38,000  Level Minneapolis Center
Mon 08:32:25 PM 41.9775 -97.0678 269° West 414 476 38,000  Level Minneapolis Center
Mon 08:33:27 PM 41.9744 -97.2228 269° West 416 479 38,000  Level Minneapolis Center
Mon 08:34:29 PM 41.9706 -97.4108 268° West 418 481 38,000  Level Minneapolis Center
Mon 08:35:30 PM 41.9669 -97.5669 268° West 420 483 38,000  Level Minneapolis Center
Mon 08:36:32 PM 41.9639 -97.7239 269° West 422 486 38,000  Level Minneapolis Center
Mon 08:37:34 PM 41.9606 -97.8797 268° West 419 482 38,000  Level Minneapolis Center
Mon 08:38:36 PM 41.9567 -98.0356 268° West 419 482 38,000  Level Minneapolis Center
Mon 08:39:38 PM 41.9533 -98.2128 269° West 416 479 38,000  Level Minneapolis Center
Mon 08:40:40 PM 41.9481 -98.3664 267° West 414 476 38,000  Level Minneapolis Center
Mon 08:41:42 PM 41.9442 -98.5192 268° West 412 474 38,000  Level Minneapolis Center
Mon 08:42:44 PM 41.9394 -98.6717 268° West 411 473 38,000  Level Minneapolis Center
Mon 08:43:46 PM 41.9350 -98.8228 268° West 409 471 38,000  Level Minneapolis Center
Mon 08:44:48 PM 41.9292 -99.0050 268° West 409 471 38,000  Level Minneapolis Center
Mon 08:45:42 PM 41.9242 -99.1258 267° West 410 472 38,000  Level Denver Center
Mon 08:46:43 PM 41.9192 -99.2783 268° West 410 472 38,000  Level Denver Center
Mon 08:47:45 PM 41.9142 -99.3972 267° West 404 465 38,000  Level Denver Center
Mon 08:48:47 PM 41.9067 -99.6081 267° West 404 465 38,000  Level Denver Center
Mon 08:49:48 PM 41.9008 -99.7492 267° West 407 468 38,000  Level Denver Center
Mon 08:50:50 PM 41.8939 -99.9203 267° West 412 474 38,000  Level Denver Center
Mon 08:51:52 PM 41.8867 -100.0658 266° West 410 472 38,000  Level Denver Center
Mon 08:52:53 PM 41.8803 -100.2119 267° West 410 472 38,000  Level Denver Center
Mon 08:53:55 PM 41.8733 -100.3839 267° West 413 475 38,000  Level Denver Center
Mon 08:54:56 PM 41.8669 -100.5319 267° West 415 478 38,000  Level Denver Center
Mon 08:55:58 PM 41.8586 -100.7047 266° West 416 479 38,000  Level Denver Center
Mon 08:57:00 PM 41.8517 -100.8514 266° West 414 476 38,000  Level Denver Center
Mon 08:58:01 PM 41.8419 -101.0236 266° West 416 479 38,000  Level Denver Center
Mon 08:59:03 PM 41.8347 -101.1722 266° West 417 480 38,000  Level Denver Center
Mon 09:00:04 PM 41.8267 -101.3442 266° West 417 480 38,000  Level Denver Center
Mon 09:01:06 PM 41.8200 -101.4675 266° West 417 480 38,000  Level Denver Center
Mon 09:02:08 PM 41.8089 -101.6400 265° West 416 479 38,000  Level Denver Center
Mon 09:03:09 PM 41.8008 -101.8092 266° West 409 471 38,000  Level Denver Center
Mon 09:04:11 PM 41.7911 -101.9547 265° West 409 471 38,000  Level Denver Center
Mon 09:05:12 PM 41.7800 -102.1233 265° West 407 468 38,000  Level Denver Center
Mon 09:06:14 PM 41.7725 -102.2561 266° West 400 460 38,000  Level Denver Center
Mon 09:07:15 PM 41.7619 -102.4211 265° West 398 458 38,000  Level Denver Center
Mon 09:08:17 PM 41.7522 -102.5739 265° West 403 464 38,000  Level Denver Center
Mon 09:09:18 PM 41.7425 -102.7319 265° West 404 465 38,000  Level Denver Center
Mon 09:10:20 PM 41.7322 -102.8750 265° West 405 466 38,000  Level Denver Center
Mon 09:11:21 PM 41.7206 -103.0428 265° West 405 466 38,000  Level Denver Center
Mon 09:12:23 PM 41.7114 -103.1867 265° West 405 466 38,000  Level Denver Center
Mon 09:13:25 PM 41.7008 -103.3308 264° West 406 467 38,000  Level Denver Center
Mon 09:14:26 PM 41.6883 -103.4994 264° West 407 468 38,000  Level Denver Center
Mon 09:15:28 PM 41.6775 -103.6436 264° West 407 468 38,000  Level Denver Center
Mon 09:16:29 PM 41.6656 -103.8128 265° West 407 468 38,000  Level Denver Center
Mon 09:17:31 PM 41.6544 -103.9578 264° West 409 471 38,000  Level Denver Center
Mon 09:18:32 PM 41.6431 -104.1033 264° West 410 472 38,000  Level Denver Center
Mon 09:19:34 PM 41.6289 -104.2742 264° West 414 476 38,000  Level Denver Center
Mon 09:21:00 PM 41.6095 -104.4825 263° West  Level FlightAware Approximate
Mon 09:21:37 PM 41.6039 -104.5878 263° West 411 473 38,000  Level Denver Center
Mon 09:22:39 PM 41.5908 -104.7353 263° West 416 479 38,000  Level Denver Center
Mon 09:23:40 PM 41.5800 -104.8800 264° West 411 473 38,000  Level Denver Center
Mon 09:24:42 PM 41.5650 -105.0489 263° West 410 472 38,000  Level Denver Center
Mon 09:25:43 PM 41.5525 -105.1925 263° West 407 468 38,000  Level Denver Center
Mon 09:26:45 PM 41.5378 -105.3578 263° West 403 464 38,000  Level Denver Center
Mon 09:27:46 PM 41.5250 -105.5006 263° West 404 465 38,000  Level Denver Center
Mon 09:29:00 PM 41.5117 -105.6417 263° West 401 461 38,000  Level Denver Center
Mon 09:30:02 PM 41.4939 -105.8294 263° West 398 458 38,000  Level Denver Center
Mon 09:31:03 PM 41.4817 -105.9714 263° West 402 463 38,000  Level Denver Center
Mon 09:32:05 PM 41.4661 -106.1372 263° West 404 465 38,000  Level Denver Center
Mon 09:33:06 PM 41.4514 -106.2767 262° West 398 458 38,000  Level Denver Center
Mon 09:34:08 PM 41.4364 -106.4400 263° West 397 457 38,000  Level Denver Center
Mon 09:35:09 PM 41.4231 -106.5742 262° West 395 455 38,000  Level Denver Center
Mon 09:36:11 PM 41.4058 -106.7383 262° West 401 461 38,000  Level Denver Center
Mon 09:37:12 PM 41.3919 -106.8797 263° West 402 463 38,000  Level Denver Center
Mon 09:38:14 PM 41.3750 -107.0447 262° West 404 465 38,000  Level Denver Center
Mon 09:39:16 PM 41.3594 -107.1869 262° West 405 466 38,000  Level Denver Center
Mon 09:40:17 PM 41.3447 -107.3283 262° West 405 466 38,000  Level Denver Center
Mon 09:41:19 PM 41.3267 -107.4928 262° West 402 463 38,000  Level Denver Center
Mon 09:42:20 PM 41.3122 -107.6328 262° West 402 463 38,000  Level Denver Center
Mon 09:43:22 PM 41.2944 -107.7947 262° West 397 457 38,000  Level Denver Center
Mon 09:44:24 PM 41.2786 -107.9325 261° West 394 453 38,000  Level Denver Center
Mon 09:45:25 PM 41.2608 -108.0928 262° West 392 451 38,000  Level Denver Center
Mon 09:46:27 PM 41.2439 -108.2314 261° West 396 456 38,000  Level Denver Center
Mon 09:47:28 PM 41.2292 -108.3692 262° West 394 453 38,000  Level Denver Center
Mon 09:48:30 PM 41.2100 -108.5300 261° West 394 453 38,000  Level Denver Center
Mon 09:49:34 PM 41.1928 -108.6703 261° West 396 456 38,000  Level Salt Lake Center
Mon 09:50:36 PM 41.1731 -108.8333 261° West 398 458 38,000  Level Salt Lake Center
Mon 09:51:37 PM 41.1561 -108.9742 261° West 402 463 38,000  Level Salt Lake Center
Mon 09:52:39 PM 41.1356 -109.1358 260° West 396 456 38,000  Level Salt Lake Center
Mon 09:53:40 PM 41.1183 -109.2758 261° West 398 458 38,000  Level Salt Lake Center
Mon 09:54:42 PM 41.1014 -109.4147 261° West 397 457 38,000  Level Salt Lake Center
Mon 09:55:43 PM 41.0808 -109.5756 260° West 394 453 38,000  Level Salt Lake Center
Mon 09:56:44 PM 41.0625 -109.7125 260° West 394 453 38,000  Level Salt Lake Center
Mon 09:57:46 PM 41.0456 -109.8511 261° West 398 458 38,000  Level Salt Lake Center
Mon 09:58:47 PM 41.0242 -110.0114 260° West 396 456 38,000  Level Salt Lake Center
Mon 09:59:50 PM 41.0064 -110.1508 260° West 401 461 38,000  Level Salt Lake Center
Mon 10:00:51 PM 40.9844 -110.3106 260° West 397 457 38,000  Level Salt Lake Center
Mon 10:01:52 PM 40.9664 -110.4475 260° West 394 453 38,000  Level Salt Lake Center
Mon 10:02:54 PM 40.9453 -110.6017 260° West 394 453 38,000  Level Salt Lake Center
Mon 10:03:55 PM 40.9261 -110.7411 260° West 387 445 38,000  Level Salt Lake Center
Mon 10:04:57 PM 40.9067 -110.8800 260° West 386 444 38,000  Level Salt Lake Center
Mon 10:05:58 PM 40.8869 -111.0211 260° West 389 448 38,000  Level Salt Lake Center
Mon 10:07:00 PM 40.8669 -111.1622 259° West 389 448 38,000  Level Salt Lake Center
Mon 10:08:01 PM 40.8469 -111.3047 260° West 394 453 38,000  Level Salt Lake Center
Mon 10:09:03 PM 40.8272 -111.4453 260° West 390 449 38,000  Level Salt Lake Center
Mon 10:10:04 PM 40.8067 -111.5875 259° West 391 450 38,000  Level Salt Lake Center
Mon 10:11:06 PM 40.7858 -111.7292 259° West 390 449 38,000  Level Salt Lake Center
Mon 10:12:07 PM 40.7592 -111.9025 259° West 399 459 38,000  Level Salt Lake Center
Mon 10:13:09 PM 40.7364 -112.0472 258° West 408 470 38,000  Level Salt Lake Center
Mon 10:14:10 PM 40.7161 -112.1914 260° West 403 464 38,000  Level Salt Lake Center
Mon 10:15:12 PM 40.6953 -112.3344 259° West 397 457 38,000  Level Salt Lake Center
Mon 10:16:13 PM 40.6742 -112.4756 259° West 393 452 38,000  Level Salt Lake Center
Mon 10:17:15 PM 40.6528 -112.6169 259° West 389 448 38,000  Level Salt Lake Center
Mon 10:18:16 PM 40.6308 -112.7592 259° West 395 455 38,000  Level Salt Lake Center
Mon 10:19:17 PM 40.6094 -112.8986 259° West 389 448 38,000  Level Salt Lake Center
Mon 10:20:19 PM 40.5853 -113.0378 257° West 390 449 38,000  Level Salt Lake Center
Mon 10:21:21 PM 40.5583 -113.2081 258° West 398 458 38,000  Level Salt Lake Center
Mon 10:22:22 PM 40.5342 -113.3464 257° West 391 450 38,000  Level Salt Lake Center
Mon 10:23:24 PM 40.5122 -113.4858 258° West 391 450 38,000  Level Salt Lake Center
Mon 10:24:25 PM 40.4897 -113.6244 258° West 390 449 38,000  Level Salt Lake Center
Mon 10:25:27 PM 40.4658 -113.7644 257° West 392 451 38,000  Level Salt Lake Center
Mon 10:26:28 PM 40.4433 -113.9025 258° West 389 448 38,000  Level Salt Lake Center
Mon 10:27:30 PM 40.4192 -114.0414 257° West 391 450 38,000  Level Salt Lake Center
Mon 10:28:31 PM 40.3956 -114.1811 258° West 393 452 38,000  Level Salt Lake Center
Mon 10:29:33 PM 40.3678 -114.3511 258° West 397 457 38,000  Level Salt Lake Center
Mon 10:30:34 PM 40.3433 -114.4906 257° West 395 455 38,000  Level Salt Lake Center
Mon 10:31:36 PM 40.3183 -114.6300 257° West 395 455 38,000  Level Salt Lake Center
Mon 10:32:37 PM 40.2942 -114.7681 257° West 391 450 38,000  Level Salt Lake Center
Mon 10:33:39 PM 40.2706 -114.9067 257° West 391 450 38,000  Level Salt Lake Center
Mon 10:34:40 PM 40.2467 -115.0442 257° West 391 450 38,000  Level Salt Lake Center
Mon 10:35:42 PM 40.2219 -115.1811 257° West 388 447 38,000  Level Salt Lake Center
Mon 10:36:43 PM 40.1978 -115.3178 257° West 387 445 38,000  Level Salt Lake Center
Mon 10:37:45 PM 40.1669 -115.4819 256° West 389 448 38,000  Level Salt Lake Center
Mon 10:38:46 PM 40.1428 -115.6206 257° West 391 450 38,000  Level Salt Lake Center
Mon 10:39:48 PM 40.1203 -115.7594 258° West 391 450 38,000  Level Salt Lake Center
Mon 10:40:49 PM 40.0944 -115.8975 256° West 392 451 38,000  Level Salt Lake Center
Mon 10:41:51 PM 40.0597 -116.0331 252° West 393 452 38,000  Level Salt Lake Center
Mon 10:42:52 PM 40.0350 -116.1847 258° West 399 459 38,000  Level Salt Lake Center
Mon 10:43:54 PM 40.0089 -116.3256 256° West 401 461 38,000  Level Salt Lake Center
Mon 10:44:55 PM 39.9817 -116.4628 256° West 395 455 38,000  Level Salt Lake Center
Mon 10:45:57 PM 39.9558 -116.6014 256° West 394 453 38,000  Level Salt Lake Center
Mon 10:46:59 PM 39.9281 -116.7392 255° West 394 453 38,000  Level Salt Lake Center
Mon 10:48:00 PM 39.9017 -116.8761 256° West 392 451 38,000  Level Salt Lake Center
Mon 10:49:02 PM 39.8697 -117.0411 256° West 392 451 38,000  Level Salt Lake Center
Mon 10:50:03 PM 39.8414 -117.1764 255° West 391 450 38,000  Level Salt Lake Center
Mon 10:51:05 PM 39.8144 -117.3128 256° West 389 448 38,000  Level Salt Lake Center
Mon 10:52:06 PM 39.7875 -117.4478 255° West 388 447 38,000  Level Salt Lake Center
Mon 10:53:08 PM 39.7611 -117.5839 256° West 387 445 38,000  Level Salt Lake Center
Mon 10:54:10 PM 39.7328 -117.7183 255° West 387 445 38,000  Level Salt Lake Center
Mon 10:55:11 PM 39.7056 -117.8553 256° West 390 449 38,000  Level Salt Lake Center
Mon 10:56:13 PM 39.6772 -117.9911 255° West 391 450 38,000  Level Salt Lake Center
Mon 10:57:15 PM 39.6428 -118.1550 255° West 393 452 38,000  Level Salt Lake Center
Mon 10:58:16 PM 39.6144 -118.2933 255° West 396 456 38,000 -488 Level Salt Lake Center
Mon 10:59:18 PM 39.5864 -118.4286 255° West 393 452 37,000 -976 Descending Salt Lake Center
Mon 11:00:19 PM 39.5572 -118.5658 255° West 396 456 36,000 -927 Descending Salt Lake Center
Mon 11:01:21 PM 39.5300 -118.7019 256° West 398 458 35,100 -930 Descending Salt Lake Center
Mon 11:02:41 PM 39.4886 -118.8928 254° West 403 464 33,800 -1,021 Descending Oakland Center
Mon 11:03:42 PM 39.4558 -119.0272 253° West 399 459 32,700 -1,033 Descending Oakland Center
Mon 11:04:43 PM 39.4286 -119.1617 255° West 392 451 31,700 -984 Descending Oakland Center
Mon 11:05:44 PM 39.3986 -119.2964 254° West 391 450 30,700 -1,073 Descending Oakland Center
Mon 11:06:46 PM 39.3633 -119.4547 254° West 385 443 29,500 -1,073 Descending Oakland Center
Mon 11:07:47 PM 39.3347 -119.5864 254° West 381 438 28,500 -934 Descending Oakland Center
Mon 11:08:48 PM 39.3044 -119.7156 253° West 378 435 27,600 -984 Descending Oakland Center
Mon 11:09:49 PM 39.2758 -119.8456 254° West 377 434 26,500 -1,073 Descending Oakland Center
Mon 11:10:51 PM 39.2461 -119.9736 253° West 373 429 25,400 -1,415 Descending Oakland Center
Mon 11:11:52 PM 39.2175 -120.0981 254° West 365 420 23,600 -1,623 Descending Oakland Center
Mon 11:12:53 PM 39.1947 -120.2122 256° West 350 403 22,100 -1,770 Descending Oakland Center
Mon 11:13:54 PM 39.1611 -120.3506 253° West 340 391 20,000 -1,869 Descending Oakland Center
Mon 11:14:55 PM 39.1317 -120.4631 251° West 333 383 18,300 -1,707 Descending Oakland Center
Mon 11:15:57 PM 39.1039 -120.5739 252° West 328 377 16,500 -1,122 Descending Oakland Center
Mon 11:16:58 PM 39.0753 -120.6806 251° West 319 367 16,000 -1,131 Descending Oakland Center
Mon 11:17:59 PM 39.0469 -120.7928 252° West 330 380 14,200 -1,672 Descending Oakland Center
Mon 11:19:00 PM 39.0183 -120.9042 252° West 330 380 12,600 -1,574 Descending Oakland Center
Mon 11:20:01 PM 38.9903 -121.0103 251° West 319 367 11,000 -1,377 Descending Oakland Center
Mon 11:21:02 PM 38.9642 -121.1119 252° West 308 354 9,800 -1,487 Descending Oakland Center
Mon 11:21:58 PM 38.9333 -121.2167 249° West 290 334 8,100 -1,622 Descending Northern Cal TRACON
Mon 11:22:53 PM 38.9167 -121.3000 256° West 285 328 6,800 -1,150 Descending Northern Cal TRACON
Mon 11:23:58 PM 38.8833 -121.4000 247° West 265 305 5,800 -816 Descending Northern Cal TRACON
Mon 11:24:58 PM 38.8833 -121.5000 270° West 243 280 5,100 -793 Descending Northern Cal TRACON
Mon 11:25:59 PM 38.8833 -121.5667 270° West 230 265 4,200 -857 Descending Northern Cal TRACON
Mon 11:27:04 PM 38.8333 -121.6000 207° Southwest 155 178 3,300 -1,104 Descending Northern Cal TRACON
Mon 11:28:04 PM 38.8000 -121.6000 180° South 152 175 1,900 -1,250 Descending Northern Cal TRACON
Mon 11:29:04 PM 38.7500 -121.6000 180° South 137 158 800 -850 Descending Northern Cal TRACON
Mon 11:30:04 PM 38.7167 -121.6000 180° South 127 146 200 -600 Descending Northern Cal TRACON
Mon 11:32:00 PM 38.6954 -121.5908 175° South  Level Estimated

Login

Don't have an account? Register now (free) for customized features, flight alerts, and more!